Time;durP1;ratioP1;P1;durP2;ratioP2;P2;SDS_P1;SDS_P2;PMS_P1;PMS_P2;Temp;Humidity;BMP_temperature;BMP_pressure;BME280_temperature;BME280_humidity;BME280_pressure;Samples;Min_cycle;Max_cycle;Signal;HPM_P1;HPM_P2
2024/03/27 00:04:36;;;;;;;8.32;3.38;;;15.70;99.90;;;;;;10019705;28;20521;-66
2024/03/27 00:09:27;;;;;;;5.72;3.20;;;15.70;99.90;;;;;;10021756;28;20038;-65
2024/03/27 00:14:17;;;;;;;7.32;4.35;;;15.60;99.90;;;;;;10024348;28;20049;-65
2024/03/27 00:19:08;;;;;;;5.28;2.83;;;15.60;99.90;;;;;;10019452;28;20484;-67
2024/03/27 00:23:59;;;;;;;3.92;2.60;;;15.50;99.90;;;;;;10020746;28;20026;-66
2024/03/27 00:28:49;;;;;;;5.28;3.00;;;15.50;99.90;;;;;;10020689;28;20092;-65
2024/03/27 00:33:40;;;;;;;3.78;2.95;;;15.50;99.90;;;;;;10020547;28;20036;-66
2024/03/27 00:38:31;;;;;;;6.32;3.33;;;15.40;99.90;;;;;;10019637;28;20059;-66
2024/03/27 00:43:22;;;;;;;6.70;3.58;;;15.40;99.90;;;;;;10020641;28;20029;-66
2024/03/27 00:48:12;;;;;;;4.60;2.25;;;15.40;99.90;;;;;;10020086;28;20116;-66
2024/03/27 00:53:03;;;;;;;5.13;2.38;;;15.20;99.90;;;;;;10017892;28;20040;-67
2024/03/27 00:57:55;;;;;;;4.72;2.35;;;15.10;99.90;;;;;;10019498;28;20113;-67
2024/03/27 01:02:45;;;;;;;4.63;2.53;;;15.10;99.90;;;;;;10019959;28;20466;-66
2024/03/27 01:07:36;;;;;;;5.60;2.38;;;15.00;99.90;;;;;;10021109;28;20030;-67
2024/03/27 01:12:28;;;;;;;4.22;2.95;;;15.00;99.90;;;;;;10022024;28;20089;-67
2024/03/27 01:17:19;;;;;;;5.90;2.60;;;15.00;99.90;;;;;;10018423;28;20108;-66
2024/03/27 01:22:09;;;;;;;4.65;3.45;;;14.90;99.90;;;;;;10019415;28;20041;-66
2024/03/27 01:27:00;;;;;;;3.35;2.53;;;14.90;99.90;;;;;;10021788;28;20033;-66
2024/03/27 01:31:51;;;;;;;3.53;2.60;;;14.90;99.90;;;;;;10018817;28;20092;-67
2024/03/27 01:36:41;;;;;;;3.65;1.83;;;14.90;99.90;;;;;;10019919;28;20053;-65
2024/03/27 01:41:32;;;;;;;3.05;2.10;;;14.80;99.90;;;;;;10018667;28;20404;-65
2024/03/27 01:46:25;;;;;;;3.97;2.20;;;14.70;99.90;;;;;;10017925;28;20176;-65
2024/03/27 01:51:16;;;;;;;5.15;2.20;;;14.70;99.90;;;;;;10015295;28;20026;-66
2024/03/27 01:56:07;;;;;;;3.53;2.38;;;14.60;99.90;;;;;;10018268;28;20109;-65
2024/03/27 02:00:57;;;;;;;3.42;2.40;;;14.60;99.90;;;;;;10017724;28;20116;-66
2024/03/27 02:05:49;;;;;;;4.72;2.20;;;14.50;99.90;;;;;;10015602;28;20105;-65
2024/03/27 02:10:40;;;;;;;3.10;2.10;;;14.40;99.90;;;;;;10017029;28;20046;-66
2024/03/27 02:15:30;;;;;;;3.33;2.13;;;14.30;99.90;;;;;;10018184;28;20464;-66
2024/03/27 02:20:21;;;;;;;2.70;2.35;;;14.30;99.90;;;;;;10018465;28;20044;-65
2024/03/27 02:25:35;;;;;;;3.67;1.50;;;14.20;99.90;;;;;;10017092;28;20100;-65
2024/03/27 02:30:26;;;;;;;3.42;1.95;;;14.20;99.90;;;;;;10014357;28;20041;-66
2024/03/27 02:35:19;;;;;;;6.82;2.15;;;14.20;99.90;;;;;;10018392;28;20040;-65
2024/03/27 02:40:10;;;;;;;3.35;2.45;;;14.20;99.90;;;;;;10008621;28;20528;-66
2024/03/27 02:45:00;;;;;;;3.97;2.00;;;14.10;99.90;;;;;;10012913;28;20025;-66
2024/03/27 02:49:51;;;;;;;4.00;2.38;;;14.10;99.90;;;;;;10014063;28;20065;-66
2024/03/27 02:54:42;;;;;;;3.80;2.35;;;14.10;99.90;;;;;;10016250;28;20034;-66
2024/03/27 02:59:32;;;;;;;4.72;2.40;;;14.10;99.90;;;;;;10014682;28;20531;-65
2024/03/27 03:04:23;;;;;;;5.63;2.63;;;14.00;99.90;;;;;;10013223;28;20030;-66
2024/03/27 03:09:13;;;;;;;3.13;2.00;;;14.00;99.90;;;;;;10015914;28;20048;-65
2024/03/27 03:14:04;;;;;;;4.72;2.03;;;13.90;99.90;;;;;;10016931;28;20381;-65
2024/03/27 03:18:55;;;;;;;5.05;2.20;;;13.90;99.90;;;;;;10015263;28;20045;-65
2024/03/27 03:23:45;;;;;;;5.47;2.17;;;13.90;99.90;;;;;;10016905;28;20029;-65
2024/03/27 03:28:36;;;;;;;5.55;1.83;;;13.90;99.90;;;;;;10015029;28;20049;-66
2024/03/27 03:33:26;;;;;;;2.25;1.40;;;13.80;99.90;;;;;;10017911;28;20028;-66
2024/03/27 03:38:18;;;;;;;2.72;1.38;;;13.80;99.90;;;;;;10015111;28;20466;-65
2024/03/27 03:43:09;;;;;;;3.33;1.98;;;13.80;99.90;;;;;;10018871;28;20026;-66
2024/03/27 03:47:59;;;;;;;5.70;2.08;;;13.80;99.90;;;;;;10014224;28;20054;-66
2024/03/27 03:52:50;;;;;;;5.32;2.17;;;13.80;99.90;;;;;;10012141;28;20103;-66
2024/03/27 03:57:41;;;;;;;2.90;1.27;;;13.80;99.90;;;;;;10016444;28;20456;-65
2024/03/27 04:02:31;;;;;;;2.38;1.63;;;13.80;99.90;;;;;;10014665;28;20030;-65
2024/03/27 04:07:22;;;;;;;3.00;1.90;;;13.60;99.90;;;;;;10014246;28;20022;-66
2024/03/27 04:12:12;;;;;;;3.88;1.67;;;13.70;99.90;;;;;;10015551;28;20041;-66
2024/03/27 04:17:03;;;;;;;3.17;1.67;;;13.70;99.90;;;;;;10021228;28;20471;-67
2024/03/27 04:21:54;;;;;;;1.92;1.27;;;13.70;99.90;;;;;;10014547;28;20470;-66
2024/03/27 04:26:44;;;;;;;4.35;1.88;;;13.60;99.90;;;;;;10013709;28;20032;-66
2024/03/27 04:31:35;;;;;;;3.38;1.50;;;13.40;99.90;;;;;;10018464;28;20037;-66
2024/03/27 04:36:25;;;;;;;4.32;1.60;;;13.40;99.90;;;;;;10021585;28;20099;-65
2024/03/27 04:41:17;;;;;;;2.85;1.45;;;13.50;99.90;;;;;;10021507;28;20100;-66
2024/03/27 04:46:08;;;;;;;3.22;1.50;;;13.40;99.90;;;;;;10021248;28;20082;-66
2024/03/27 04:50:58;;;;;;;3.47;1.80;;;13.30;99.90;;;;;;10021309;28;20044;-67
2024/03/27 04:55:56;;;;;;;2.25;1.20;;;13.30;99.90;;;;;;10024079;28;20523;-66
2024/03/27 05:00:46;;;;;;;5.90;1.30;;;13.40;99.90;;;;;;10019978;28;20057;-66
2024/03/27 05:05:37;;;;;;;2.47;1.17;;;13.40;99.90;;;;;;10021271;28;20088;-65
2024/03/27 05:10:28;;;;;;;3.33;1.05;;;13.30;99.90;;;;;;10021305;28;20034;-66
2024/03/27 05:15:18;;;;;;;2.40;1.17;;;13.20;99.90;;;;;;10020328;28;20080;-67
2024/03/27 05:20:10;;;;;;;1.58;1.20;;;13.10;99.90;;;;;;10016652;28;20034;-66
2024/03/27 05:25:01;;;;;;;2.10;1.23;;;13.10;99.90;;;;;;10024639;28;20072;-66
2024/03/27 05:29:52;;;;;;;1.65;1.23;;;13.00;99.90;;;;;;10022024;28;20641;-66
2024/03/27 05:34:42;;;;;;;2.67;1.17;;;13.10;99.90;;;;;;10028628;28;20029;-66
2024/03/27 05:39:33;;;;;;;3.72;1.23;;;13.10;99.90;;;;;;10023244;28;20065;-66
2024/03/27 05:44:24;;;;;;;2.70;1.10;;;13.10;99.90;;;;;;10016691;28;20034;-67
2024/03/27 05:49:14;;;;;;;1.75;1.00;;;13.00;99.90;;;;;;10015660;28;20450;-65
2024/03/27 05:54:06;;;;;;;1.10;0.85;;;12.90;99.90;;;;;;10017852;28;20030;-65
2024/03/27 05:58:56;;;;;;;1.08;0.90;;;12.80;99.90;;;;;;10018067;28;20294;-65
2024/03/27 06:03:52;;;;;;;2.88;1.20;;;12.90;99.90;;;;;;10018998;28;20504;-66
2024/03/27 06:08:45;;;;;;;3.40;1.13;;;12.80;99.90;;;;;;10017926;28;20046;-66
2024/03/27 06:13:36;;;;;;;1.17;0.80;;;12.90;99.90;;;;;;10017733;28;20022;-66
2024/03/27 06:18:27;;;;;;;2.25;0.93;;;12.90;99.90;;;;;;10017179;28;20030;-66
2024/03/27 06:23:18;;;;;;;1.45;0.90;;;12.90;99.90;;;;;;10017065;28;20034;-66
2024/03/27 06:28:09;;;;;;;1.38;0.98;;;12.90;99.90;;;;;;10017056;28;20037;-66
2024/03/27 06:32:59;;;;;;;1.52;1.35;;;12.90;99.90;;;;;;10018245;28;20384;-67
2024/03/27 06:37:50;;;;;;;1.88;0.85;;;12.90;99.90;;;;;;10021255;28;20046;-66
2024/03/27 06:42:42;;;;;;;1.90;1.00;;;13.00;99.90;;;;;;10016563;28;20041;-67
2024/03/27 06:47:33;;;;;;;2.17;1.00;;;13.00;99.90;;;;;;10009322;28;20053;-67
2024/03/27 06:52:24;;;;;;;2.70;1.23;;;13.00;99.90;;;;;;10012624;28;20078;-66
2024/03/27 06:57:15;;;;;;;2.58;1.13;;;12.90;99.90;;;;;;10011915;28;20034;-66
2024/03/27 07:02:05;;;;;;;2.28;1.20;;;12.90;99.90;;;;;;10016527;28;20060;-66
2024/03/27 07:06:56;;;;;;;6.93;1.02;;;12.80;99.90;;;;;;10007810;28;20127;-66
2024/03/27 07:11:47;;;;;;;1.67;0.70;;;12.70;99.90;;;;;;10010220;28;20057;-66
2024/03/27 07:16:38;;;;;;;1.40;0.75;;;12.50;99.90;;;;;;10010001;28;20174;-65
2024/03/27 07:21:28;;;;;;;1.35;0.50;;;12.60;99.90;;;;;;10008670;28;20034;-66
2024/03/27 07:26:19;;;;;;;2.38;1.05;;;12.60;99.90;;;;;;10006153;28;20480;-67
2024/03/27 07:31:11;;;;;;;2.58;0.60;;;12.40;99.90;;;;;;10006831;28;20041;-65
2024/03/27 07:36:01;;;;;;;1.17;0.68;;;12.40;99.90;;;;;;10004836;28;20038;-66
2024/03/27 07:40:52;;;;;;;1.48;0.60;;;12.40;99.90;;;;;;10020752;28;20057;-66
2024/03/27 07:45:42;;;;;;;1.20;0.80;;;12.30;99.90;;;;;;10016544;28;20022;-65
2024/03/27 07:50:33;;;;;;;1.85;0.98;;;12.50;99.90;;;;;;10015496;28;20112;-66
2024/03/27 07:55:24;;;;;;;2.08;0.77;;;12.40;99.90;;;;;;10015847;28;20018;-67
2024/03/27 08:00:16;;;;;;;0.88;0.68;;;12.20;99.90;;;;;;10014755;28;20545;-66
2024/03/27 08:05:06;;;;;;;2.65;0.85;;;12.10;99.90;;;;;;10016734;28;20030;-67
2024/03/27 08:09:57;;;;;;;1.92;0.88;;;12.10;99.90;;;;;;10023534;28;20107;-67
2024/03/27 08:14:48;;;;;;;1.23;0.55;;;12.10;99.90;;;;;;10021415;28;20030;-67
2024/03/27 08:19:42;;;;;;;1.38;0.73;;;12.00;99.90;;;;;;10022321;28;20029;-67
2024/03/27 08:24:33;;;;;;;1.35;0.60;;;11.90;99.90;;;;;;10023083;28;20515;-67
2024/03/27 08:29:23;;;;;;;0.85;0.60;;;12.10;99.90;;;;;;10018487;28;20033;-66
2024/03/27 08:34:14;;;;;;;0.90;0.30;;;11.90;99.90;;;;;;10014207;28;20121;-67
2024/03/27 08:39:07;;;;;;;0.70;0.50;;;11.90;99.90;;;;;;10013813;28;20522;-66
2024/03/27 08:43:57;;;;;;;0.55;0.43;;;11.90;99.90;;;;;;10014710;28;20046;-67
2024/03/27 08:48:48;;;;;;;0.93;0.55;;;12.00;99.90;;;;;;10014682;28;20491;-67
2024/03/27 08:53:39;;;;;;;0.30;0.20;;;12.00;99.90;;;;;;10017987;28;20464;-66
2024/03/27 08:58:29;;;;;;;0.93;0.50;;;11.90;99.90;;;;;;10011121;28;20080;-66
2024/03/27 09:03:20;;;;;;;0.60;0.50;;;11.80;99.90;;;;;;10022594;28;20129;-66
2024/03/27 09:08:11;;;;;;;0.60;0.40;;;11.80;99.90;;;;;;10021613;28;20073;-66
2024/03/27 09:13:01;;;;;;;0.20;0.20;;;11.90;99.90;;;;;;10018929;28;20033;-67
2024/03/27 09:17:52;;;;;;;0.30;0.30;;;11.90;99.90;;;;;;10012454;28;20037;-65
2024/03/27 09:22:43;;;;;;;1.75;0.47;;;11.90;99.90;;;;;;10007688;28;20034;-64
2024/03/27 09:27:34;;;;;;;2.55;0.65;;;11.70;99.90;;;;;;10009654;28;20083;-65
2024/03/27 09:32:24;;;;;;;1.27;0.20;;;11.60;99.90;;;;;;10019506;28;20053;-66
2024/03/27 09:37:15;;;;;;;0.73;0.43;;;11.50;99.90;;;;;;10020087;28;20429;-65
2024/03/27 09:42:06;;;;;;;0.50;0.40;;;11.40;99.90;;;;;;10018945;28;20475;-65
2024/03/27 09:47:01;;;;;;;0.63;0.40;;;11.40;99.90;;;;;;10016909;28;20100;-65
2024/03/27 09:51:52;;;;;;;1.00;0.40;;;11.40;99.90;;;;;;10012706;28;20069;-65
2024/03/27 09:56:43;;;;;;;0.63;0.60;;;11.20;99.90;;;;;;10019349;28;20476;-65
2024/03/27 10:01:35;;;;;;;0.70;0.63;;;11.20;99.90;;;;;;10020769;28;20033;-65
2024/03/27 10:06:26;;;;;;;0.50;0.45;;;11.30;99.90;;;;;;10018641;28;20034;-65
2024/03/27 10:11:17;;;;;;;1.90;0.90;;;11.30;99.90;;;;;;10018541;28;20088;-65
2024/03/27 10:16:09;;;;;;;1.65;0.80;;;11.30;99.90;;;;;;10021968;28;20030;-66
2024/03/27 10:21:00;;;;;;;3.20;0.80;;;11.30;99.90;;;;;;10017573;28;20033;-66
2024/03/27 10:25:51;;;;;;;1.40;0.73;;;11.50;99.90;;;;;;10018381;28;20185;-66
2024/03/27 10:30:42;;;;;;;1.38;0.88;;;11.50;99.90;;;;;;10016474;28;20042;-66
2024/03/27 10:35:36;;;;;;;0.75;0.47;;;11.40;99.90;;;;;;10040566;28;20476;-65
2024/03/27 10:40:29;;;;;;;1.75;1.00;;;11.40;99.90;;;;;;10017584;28;20466;-66
2024/03/27 10:45:20;;;;;;;0.90;0.80;;;11.40;99.90;;;;;;10017994;28;20052;-66
2024/03/27 10:50:11;;;;;;;1.10;1.00;;;11.40;99.90;;;;;;10016543;28;20542;-67
2024/03/27 10:55:06;;;;;;;1.88;1.10;;;11.60;99.90;;;;;;10017653;28;20478;-66
2024/03/27 10:59:57;;;;;;;1.90;0.93;;;11.70;99.90;;;;;;10017898;28;20033;-67
2024/03/27 11:04:55;;;;;;;2.15;1.50;;;11.80;99.90;;;;;;10003419;28;20066;-68
2024/03/27 11:09:56;;;;;;;2.15;1.10;;;11.80;99.90;;;;;;10001525;28;20034;-67
2024/03/27 11:14:48;;;;;;;2.45;1.17;;;11.90;99.90;;;;;;10010110;28;20038;-67
2024/03/27 11:19:43;;;;;;;0.35;0.30;;;11.80;99.90;;;;;;10015561;28;20076;-67
2024/03/27 11:24:33;;;;;;;0.82;0.32;;;11.60;99.90;;;;;;10015923;28;20038;-66
2024/03/27 11:29:25;;;;;;;1.67;0.40;;;11.50;99.90;;;;;;10015493;28;20048;-66
2024/03/27 11:34:16;;;;;;;0.32;0.30;;;11.40;99.90;;;;;;10009884;28;20117;-64
2024/03/27 11:39:09;;;;;;;0.75;0.45;;;11.40;99.90;;;;;;10021549;28;20136;-67
2024/03/27 11:44:00;;;;;;;0.80;0.20;;;11.60;99.90;;;;;;10017798;28;20030;-65
2024/03/27 11:48:50;;;;;;;1.13;0.28;;;11.70;99.90;;;;;;10006902;28;20038;-65
2024/03/27 11:53:43;;;;;;;0.90;0.50;;;11.80;99.90;;;;;;10008669;28;20405;-67
2024/03/27 11:58:34;;;;;;;1.13;0.57;;;11.70;99.90;;;;;;10011480;28;20031;-65
2024/03/27 12:03:24;;;;;;;0.68;0.45;;;11.70;99.90;;;;;;10017185;28;20034;-65
2024/03/27 12:08:15;;;;;;;0.30;0.25;;;11.70;99.90;;;;;;10015676;28;20046;-65
2024/03/27 12:13:07;;;;;;;0.45;0.38;;;11.70;99.90;;;;;;10011108;28;20505;-65
2024/03/27 12:18:00;;;;;;;0.70;0.40;;;11.70;99.90;;;;;;10020486;28;20469;-67
2024/03/27 12:22:51;;;;;;;0.50;0.28;;;11.80;99.90;;;;;;10019557;28;20053;-67
2024/03/27 12:27:41;;;;;;;0.47;0.45;;;11.90;99.90;;;;;;10023288;28;20045;-66
2024/03/27 12:32:32;;;;;;;1.15;0.60;;;11.80;99.90;;;;;;10024993;28;20076;-66
2024/03/27 12:37:23;;;;;;;0.38;0.30;;;11.80;99.90;;;;;;10024013;28;20048;-66
2024/03/27 12:42:14;;;;;;;0.73;0.47;;;11.80;99.90;;;;;;10021431;28;20063;-66
2024/03/27 12:47:05;;;;;;;0.57;0.40;;;11.70;99.90;;;;;;10021700;28;20029;-66
2024/03/27 12:51:56;;;;;;;0.85;0.30;;;11.70;99.90;;;;;;10021527;28;20049;-65
2024/03/27 12:56:47;;;;;;;0.70;0.30;;;11.80;99.90;;;;;;10024348;28;20033;-66
2024/03/27 13:01:38;;;;;;;0.75;0.55;;;11.80;99.90;;;;;;10020984;28;20034;-66
2024/03/27 13:06:29;;;;;;;0.70;0.52;;;11.70;99.90;;;;;;10021158;28;20413;-66
2024/03/27 13:11:20;;;;;;;2.25;0.70;;;11.80;99.90;;;;;;10019503;28;20048;-67
2024/03/27 13:16:11;;;;;;;1.08;0.40;;;11.90;99.90;;;;;;10020920;28;20643;-67
2024/03/27 13:21:01;;;;;;;1.13;0.60;;;11.90;99.90;;;;;;10029125;28;20030;-66
2024/03/27 13:25:52;;;;;;;1.33;0.80;;;11.90;99.90;;;;;;10019208;28;20029;-66
2024/03/27 13:30:43;;;;;;;0.85;0.60;;;11.80;99.90;;;;;;10016655;28;20038;-67
2024/03/27 13:35:33;;;;;;;1.38;0.60;;;11.90;99.90;;;;;;10021270;28;20034;-65
2024/03/27 13:40:24;;;;;;;1.10;0.68;;;12.00;99.90;;;;;;10018879;28;20053;-66
2024/03/27 13:45:15;;;;;;;0.98;0.65;;;12.00;99.90;;;;;;10020134;28;20042;-66
2024/03/27 13:50:06;;;;;;;1.00;0.93;;;12.00;99.90;;;;;;10015550;28;20039;-68
2024/03/27 13:54:57;;;;;;;2.10;0.90;;;12.00;99.90;;;;;;10017027;28;20046;-66
2024/03/27 13:59:48;;;;;;;0.70;0.70;;;11.90;99.90;;;;;;10019717;28;20109;-65
2024/03/27 14:04:39;;;;;;;1.00;0.68;;;11.80;99.90;;;;;;10010669;28;20034;-66
2024/03/27 14:09:30;;;;;;;0.93;0.70;;;11.70;99.90;;;;;;10026788;28;20046;-67
2024/03/27 14:14:21;;;;;;;1.23;0.60;;;11.80;99.90;;;;;;10007766;28;20037;-66
2024/03/27 14:19:12;;;;;;;1.30;0.55;;;11.80;99.90;;;;;;10006727;28;20561;-66
2024/03/27 14:24:02;;;;;;;0.75;0.50;;;11.90;99.90;;;;;;10011892;28;20440;-66
2024/03/27 14:29:00;;;;;;;0.88;0.60;;;11.80;99.90;;;;;;10182405;27;20393;-67
2024/03/27 14:33:51;;;;;;;1.20;0.82;;;11.80;99.90;;;;;;10145773;28;20031;-66
2024/03/27 14:38:41;;;;;;;1.15;0.70;;;11.70;99.90;;;;;;10147335;28;20040;-66
2024/03/27 14:43:32;;;;;;;1.25;1.10;;;11.90;99.90;;;;;;10150571;28;20031;-66
2024/03/27 14:48:23;;;;;;;0.60;0.50;;;11.80;99.90;;;;;;10146725;28;20059;-65
2024/03/27 14:53:13;;;;;;;2.03;0.80;;;11.70;99.90;;;;;;10132618;28;20048;-65
2024/03/27 14:58:07;;;;;;;0.75;0.70;;;11.60;99.90;;;;;;10133705;28;20383;-68
2024/03/27 15:02:57;;;;;;;0.73;0.73;;;11.60;99.90;;;;;;10158665;28;20024;-66
2024/03/27 15:07:48;;;;;;;2.05;1.08;;;11.50;99.90;;;;;;10146910;28;20179;-64
2024/03/27 15:12:39;;;;;;;3.03;0.80;;;11.50;99.90;;;;;;10133279;28;20509;-64
2024/03/27 15:17:30;;;;;;;1.20;0.80;;;11.60;99.90;;;;;;10140688;28;20573;-66
2024/03/27 15:22:20;;;;;;;2.10;0.70;;;11.60;99.90;;;;;;10137242;28;20116;-65
2024/03/27 15:27:11;;;;;;;3.13;0.80;;;11.60;99.90;;;;;;10134001;28;20037;-64
2024/03/27 15:32:02;;;;;;;1.38;0.73;;;11.60;99.90;;;;;;10133353;28;20071;-65
2024/03/27 15:36:53;;;;;;;0.80;0.70;;;11.50;99.90;;;;;;10124127;28;20067;-65
2024/03/27 15:41:44;;;;;;;1.65;0.80;;;11.50;99.90;;;;;;10107903;28;20029;-65
2024/03/27 15:46:35;;;;;;;0.93;0.68;;;11.40;99.90;;;;;;10097324;28;20437;-66
2024/03/27 15:51:27;;;;;;;1.00;0.73;;;11.40;99.90;;;;;;10107607;28;20037;-68
2024/03/27 15:56:20;;;;;;;1.15;0.77;;;11.40;99.90;;;;;;10115554;28;20035;-66
2024/03/27 16:01:11;;;;;;;1.20;0.77;;;11.40;99.90;;;;;;10103661;28;20025;-68
2024/03/27 16:06:02;;;;;;;1.95;0.60;;;11.50;99.90;;;;;;10113535;28;20531;-68
2024/03/27 16:10:54;;;;;;;0.82;0.50;;;11.40;99.90;;;;;;10115263;28;20029;-67
2024/03/27 16:15:45;;;;;;;0.60;0.52;;;11.40;99.90;;;;;;10108677;28;20150;-66
2024/03/27 16:20:36;;;;;;;0.50;0.50;;;11.40;99.90;;;;;;10100744;28;20453;-65
2024/03/27 16:25:26;;;;;;;1.35;0.75;;;11.30;99.90;;;;;;10106956;28;20177;-66
2024/03/27 16:30:17;;;;;;;0.70;0.50;;;11.30;99.90;;;;;;10111036;28;20029;-66
2024/03/27 16:35:08;;;;;;;0.85;0.60;;;11.20;99.90;;;;;;10104259;28;20541;-65
2024/03/27 16:39:59;;;;;;;2.20;0.70;;;11.30;99.90;;;;;;10095720;28;20425;-64
2024/03/27 16:44:49;;;;;;;1.55;0.93;;;11.30;99.90;;;;;;10098453;28;20040;-65
2024/03/27 16:49:40;;;;;;;2.30;0.77;;;11.20;99.90;;;;;;10106674;28;20048;-64
2024/03/27 16:54:31;;;;;;;0.90;0.60;;;11.20;99.90;;;;;;10103666;28;20122;-63
2024/03/27 16:59:22;;;;;;;0.88;0.82;;;11.20;99.90;;;;;;10102126;28;20403;-68
2024/03/27 17:04:14;;;;;;;1.90;1.27;;;11.20;99.90;;;;;;10098838;28;20441;-66
2024/03/27 17:09:05;;;;;;;1.20;0.95;;;11.30;99.90;;;;;;10099012;28;20040;-66
2024/03/27 17:13:55;;;;;;;1.55;0.82;;;11.40;99.90;;;;;;10105329;28;20031;-66
2024/03/27 17:18:49;;;;;;;2.55;0.80;;;11.40;99.90;;;;;;10100528;28;20116;-67
2024/03/27 17:23:40;;;;;;;4.20;0.98;;;11.40;99.90;;;;;;10096263;28;20033;-65
2024/03/27 17:28:30;;;;;;;1.98;1.25;;;11.40;99.90;;;;;;10107413;28;20057;-66
2024/03/27 17:33:21;;;;;;;2.17;0.98;;;11.40;99.90;;;;;;10116737;28;20033;-66
2024/03/27 17:38:12;;;;;;;1.58;1.10;;;11.40;99.90;;;;;;10105023;28;20024;-66
2024/03/27 17:43:02;;;;;;;1.23;1.00;;;11.50;99.90;;;;;;10117535;28;20023;-65
2024/03/27 17:47:53;;;;;;;1.15;0.73;;;11.30;99.90;;;;;;10111616;28;20037;-66
2024/03/27 17:52:43;;;;;;;0.95;0.82;;;11.30;99.90;;;;;;10105517;28;20582;-65
2024/03/27 17:57:34;;;;;;;2.15;1.40;;;11.20;99.90;;;;;;10103372;28;20029;-65
2024/03/27 18:02:25;;;;;;;1.90;1.40;;;11.20;99.90;;;;;;10103773;28;20024;-67
2024/03/27 18:07:15;;;;;;;1.83;1.20;;;11.10;99.90;;;;;;10120735;28;20066;-65
2024/03/27 18:12:06;;;;;;;2.53;1.27;;;11.20;99.90;;;;;;10118917;28;20494;-67
2024/03/27 18:16:57;;;;;;;1.48;1.20;;;11.20;99.90;;;;;;10094716;28;20044;-67
2024/03/27 18:21:47;;;;;;;3.17;1.30;;;11.10;99.90;;;;;;10102036;28;20475;-67
2024/03/27 18:26:38;;;;;;;1.50;1.33;;;11.00;99.90;;;;;;10102520;28;20041;-66
2024/03/27 18:31:28;;;;;;;1.55;1.00;;;11.10;99.90;;;;;;10104853;28;20112;-67
2024/03/27 18:36:19;;;;;;;2.20;1.10;;;11.10;99.90;;;;;;10116545;28;20024;-65
2024/03/27 18:41:10;;;;;;;1.70;1.10;;;11.10;99.90;;;;;;10113106;28;20128;-66
2024/03/27 18:46:00;;;;;;;1.58;1.10;;;11.10;99.90;;;;;;10102010;28;20085;-68
2024/03/27 18:50:51;;;;;;;1.67;1.20;;;11.10;99.90;;;;;;10099787;28;20407;-67
2024/03/27 18:55:42;;;;;;;1.08;0.88;;;11.10;99.90;;;;;;10112655;28;20583;-64
2024/03/27 19:00:32;;;;;;;3.08;0.90;;;11.00;99.90;;;;;;10116189;28;20517;-66
2024/03/27 19:05:23;;;;;;;3.40;1.27;;;11.00;99.90;;;;;;10114113;28;20151;-64
2024/03/27 19:10:14;;;;;;;1.50;1.00;;;11.00;99.90;;;;;;10107451;28;20027;-67
2024/03/27 19:15:05;;;;;;;3.13;1.33;;;11.00;99.90;;;;;;10104538;28;20079;-65
2024/03/27 19:19:56;;;;;;;1.92;1.10;;;10.90;99.90;;;;;;10096671;28;20111;-65
2024/03/27 19:24:46;;;;;;;2.42;1.58;;;11.00;99.90;;;;;;10127750;28;20144;-64
2024/03/27 19:29:37;;;;;;;2.22;1.13;;;11.00;99.90;;;;;;10106119;28;20494;-64
2024/03/27 19:34:28;;;;;;;1.33;0.98;;;10.90;99.90;;;;;;10110766;28;20032;-68
2024/03/27 19:39:18;;;;;;;3.03;1.30;;;10.90;99.90;;;;;;10106784;28;20033;-68
2024/03/27 19:44:09;;;;;;;2.63;1.60;;;10.90;99.90;;;;;;10103996;28;20394;-68
2024/03/27 19:49:00;;;;;;;1.75;1.20;;;10.80;99.90;;;;;;10110067;28;20748;-65
2024/03/27 19:53:50;;;;;;;1.60;1.10;;;10.80;99.90;;;;;;10101807;28;20384;-65
2024/03/27 19:58:41;;;;;;;1.27;1.02;;;10.80;99.90;;;;;;10111761;28;20078;-65
2024/03/27 20:03:31;;;;;;;2.33;1.20;;;10.70;99.90;;;;;;10109617;28;20037;-65
2024/03/27 20:08:22;;;;;;;2.00;1.30;;;10.70;99.90;;;;;;10102015;28;20531;-67
2024/03/27 20:13:13;;;;;;;1.40;1.23;;;10.70;99.90;;;;;;10112967;28;20025;-66
2024/03/27 20:18:04;;;;;;;2.22;1.20;;;10.70;99.90;;;;;;10121603;28;20029;-66
2024/03/27 20:22:55;;;;;;;1.63;1.20;;;10.60;99.90;;;;;;10121622;28;20514;-65
2024/03/27 20:27:45;;;;;;;3.70;1.63;;;10.60;99.90;;;;;;10107937;28;20053;-68
2024/03/27 20:32:36;;;;;;;2.20;1.25;;;10.70;99.90;;;;;;10101538;28;20029;-65
2024/03/27 20:37:27;;;;;;;2.13;1.73;;;10.60;99.90;;;;;;10082635;28;20521;-66
2024/03/27 20:42:19;;;;;;;2.00;1.27;;;10.60;99.90;;;;;;10089105;28;20037;-65
2024/03/27 20:47:09;;;;;;;4.30;1.30;;;10.50;99.90;;;;;;10100066;28;20451;-64
2024/03/27 20:52:00;;;;;;;1.75;1.27;;;10.60;99.90;;;;;;10096970;28;20104;-65
2024/03/27 20:56:50;;;;;;;3.33;1.52;;;10.60;99.90;;;;;;10078705;28;20067;-65
2024/03/27 21:01:41;;;;;;;2.17;1.35;;;10.60;99.90;;;;;;10088167;28;20042;-66
2024/03/27 21:06:32;;;;;;;2.83;1.63;;;10.60;99.90;;;;;;10090901;28;20447;-66
2024/03/27 21:11:23;;;;;;;2.20;1.52;;;10.50;99.90;;;;;;10085526;28;20470;-65
2024/03/27 21:16:13;;;;;;;2.17;1.50;;;10.50;99.90;;;;;;10093700;28;20029;-66
2024/03/27 21:21:04;;;;;;;1.48;1.27;;;10.40;99.90;;;;;;10098184;28;20032;-68
2024/03/27 21:25:55;;;;;;;2.70;1.65;;;10.40;99.90;;;;;;10096097;28;20052;-66
2024/03/27 21:30:45;;;;;;;2.13;1.50;;;10.50;99.90;;;;;;10093966;28;20025;-66
2024/03/27 21:35:36;;;;;;;4.07;2.28;;;10.40;99.90;;;;;;10089497;28;20104;-66
2024/03/27 21:40:27;;;;;;;2.88;1.50;;;10.50;99.90;;;;;;10103911;28;20596;-66
2024/03/27 21:45:17;;;;;;;2.97;1.80;;;10.40;99.90;;;;;;10079698;28;20033;-66
2024/03/27 21:50:11;;;;;;;3.45;1.67;;;10.30;99.90;;;;;;10097765;28;20028;-66
2024/03/27 21:55:03;;;;;;;2.85;1.30;;;10.40;99.90;;;;;;10102314;28;20028;-66
2024/03/27 21:59:53;;;;;;;3.58;1.60;;;10.30;99.90;;;;;;10095231;28;20183;-66
2024/03/27 22:04:44;;;;;;;2.95;1.50;;;10.40;99.90;;;;;;10096038;28;20553;-66
2024/03/27 22:09:34;;;;;;;2.75;1.38;;;10.40;99.90;;;;;;10096629;28;20236;-65
2024/03/27 22:14:25;;;;;;;2.90;1.52;;;10.30;99.90;;;;;;10104846;28;20036;-67
2024/03/27 22:19:17;;;;;;;2.40;1.52;;;10.30;99.90;;;;;;10089840;28;20028;-69
2024/03/27 22:24:09;;;;;;;1.65;1.23;;;10.30;99.90;;;;;;10106330;28;20040;-65
2024/03/27 22:28:59;;;;;;;2.72;1.50;;;10.30;99.90;;;;;;10098757;28;20047;-65
2024/03/27 22:33:50;;;;;;;1.67;1.10;;;10.30;99.90;;;;;;10095347;28;20116;-66
2024/03/27 22:38:41;;;;;;;2.25;1.30;;;10.20;99.90;;;;;;10106721;28;20032;-66
2024/03/27 22:43:32;;;;;;;1.92;1.05;;;10.20;99.90;;;;;;10117450;28;20037;-66
2024/03/27 22:48:23;;;;;;;2.30;2.03;;;10.20;99.90;;;;;;10105131;28;20036;-65
2024/03/27 22:53:13;;;;;;;2.88;1.73;;;10.10;99.90;;;;;;10099845;28;20025;-67
2024/03/27 22:58:04;;;;;;;1.95;1.25;;;10.10;99.90;;;;;;10120120;28;20112;-66
2024/03/27 23:02:55;;;;;;;2.30;1.70;;;10.10;99.90;;;;;;10115057;28;20013;-65
2024/03/27 23:07:45;;;;;;;3.92;1.63;;;10.00;99.90;;;;;;10102346;28;20495;-68
2024/03/27 23:12:36;;;;;;;3.17;2.00;;;10.00;99.90;;;;;;10103230;28;20573;-65
2024/03/27 23:17:27;;;;;;;7.00;1.90;;;9.90;99.90;;;;;;10112288;28;20037;-66
2024/03/27 23:22:17;;;;;;;3.40;1.95;;;9.80;99.90;;;;;;10108087;28;20459;-66
2024/03/27 23:27:08;;;;;;;4.30;1.80;;;9.70;99.90;;;;;;10105958;28;20040;-66
2024/03/27 23:31:59;;;;;;;3.85;1.75;;;9.70;99.90;;;;;;10120421;28;20379;-66
2024/03/27 23:36:49;;;;;;;2.03;1.40;;;9.70;99.90;;;;;;10109701;28;20359;-65
2024/03/27 23:41:40;;;;;;;3.17;1.73;;;9.40;99.90;;;;;;10117657;28;20017;-65
2024/03/27 23:46:30;;;;;;;3.33;1.60;;;9.50;99.90;;;;;;10116721;28;20060;-65
2024/03/27 23:51:22;;;;;;;2.35;1.90;;;9.50;99.90;;;;;;10109473;28;20429;-65
2024/03/27 23:56:13;;;;;;;3.92;1.55;;;9.60;99.90;;;;;;10103741;28;20091;-66
